Portada
METAR-TAF:

METAR-TAF

Aeropuertos :

Aeropuerto de Córdoba

Córdoba, España

latitud: 37-51N, longitud: 004-51W, altitud: 90 m

Observación

El informe se hizo hace 21 minutos, a las 10:00 UTC
Viento 4 kt del este, variando entre norte-noreste y este-sureste
Temperatura 11°C
Humedad 87%
Presión 1024 hPa
Visibilidad 10 km o más
sin nubes por debajo de 1500 m y sin presencia de cumulonimbus.

METAR: LEBA 271000Z 08004KT 020V110 CAVOK 11/09 Q1024

Hora: 11:21 (10:21 UTC)

Pronóstico

El informe se hizo hace 2 horas y 21 minutos, a las 08:00 UTC
Pronóstico válido del 27 a las 09 UTC al 28 a las 09 UTC
Viento 4 kt del este
Visibilidad 10 km o más
Escasas nubes a una altura de 4500 ft

TAF: LEBA 270800Z 2709/2809 08004KT 9999 FEW045 TX17/2715Z TN05/2807Z

Observaciones y pronósticos meteorológicos de más de 4000 aeropuertos (mensajes METAR y TAF).

Los puntos amarillos y rojos representan las estaciones disponibles.

Ponga el ratón en el punto deseado para ver el nombre de la estación.

Haga clic para ver las observaciones y los pronósticos meteorológicos.

Para cambiar el mapa : haga clic en los botones verdes con una cruz de color negro para hacer un zoom, en el botón verde con un guión para alejar o en las flechas verdes para mapas adyacentes.


METAR-TAF: